createdAt,value
2022-12-03T00:00:47.598Z,100709.34
2022-12-03T00:03:15.836Z,100715.38
2022-12-03T00:05:48.878Z,100723.06
2022-12-03T00:08:17.049Z,100713.72
2022-12-03T00:10:46.157Z,100720.50
2022-12-03T00:13:13.820Z,100712.00
2022-12-03T00:15:41.535Z,100713.69
2022-12-03T00:18:09.222Z,100715.44
2022-12-03T00:20:37.320Z,100716.25
2022-12-03T00:23:05.255Z,100721.38
2022-12-03T00:25:32.903Z,100715.41
2022-12-03T00:28:02.019Z,100715.44
2022-12-03T00:30:29.951Z,100714.50
2022-12-03T00:32:57.597Z,100711.13
2022-12-03T00:35:25.321Z,100701.75
2022-12-03T00:37:52.985Z,100705.13
2022-12-03T00:40:20.732Z,100708.56
2022-12-03T00:42:48.378Z,100705.16
2022-12-03T00:45:17.716Z,100702.53
2022-12-03T00:47:46.059Z,100703.47
2022-12-03T00:50:13.762Z,100705.16
2022-12-03T00:52:41.448Z,100706.00
2022-12-03T00:55:10.034Z,100700.88
2022-12-03T00:57:37.877Z,100705.09
2022-12-03T01:00:07.337Z,100698.28
2022-12-03T01:02:36.629Z,100702.53
2022-12-03T01:05:04.664Z,100701.72
2022-12-03T01:07:32.393Z,100704.25
2022-12-03T01:10:00.169Z,100702.59
2022-12-03T01:12:27.835Z,100704.28
2022-12-03T01:14:55.821Z,100705.19
2022-12-03T01:17:24.113Z,100706.03
2022-12-03T01:19:53.198Z,100702.63
2022-12-03T01:22:21.034Z,100710.34
2022-12-03T01:24:48.804Z,100715.44
2022-12-03T01:27:16.490Z,100707.75
2022-12-03T01:29:44.160Z,100706.84
2022-12-03T01:32:17.043Z,100701.75
2022-12-03T01:34:44.902Z,100713.69
2022-12-03T01:37:14.297Z,100703.47
2022-12-03T01:39:42.548Z,100707.72
2022-12-03T01:42:14.347Z,100712.81
2022-12-03T01:44:42.323Z,100703.47
2022-12-03T01:47:14.748Z,100712.88
2022-12-03T01:49:44.721Z,100703.47
2022-12-03T01:52:16.886Z,100701.75
2022-12-03T01:54:48.298Z,100711.13
2022-12-03T01:57:22.518Z,100721.38
2022-12-03T01:59:50.811Z,100719.66
2022-12-03T02:02:23.549Z,100724.78
2022-12-03T02:04:53.146Z,100727.38
2022-12-03T02:07:25.574Z,100725.72
2022-12-03T02:09:54.673Z,100730.81
2022-12-03T02:12:26.314Z,100730.81
2022-12-03T02:14:55.565Z,100719.63
2022-12-03T02:17:23.595Z,100725.63
2022-12-03T02:19:52.154Z,100723.13
2022-12-03T02:22:39.013Z,100722.25
2022-12-03T02:25:22.194Z,100727.38
2022-12-03T02:27:50.706Z,100718.00
2022-12-03T02:30:21.208Z,100721.41
2022-12-03T02:32:49.384Z,100730.81
2022-12-03T02:35:18.968Z,100720.56
2022-12-03T02:37:49.279Z,100713.72
2022-12-03T02:40:23.743Z,100712.03
2022-12-03T02:42:54.119Z,100712.03
2022-12-03T02:45:25.015Z,100712.03
2022-12-03T02:47:55.750Z,100711.94
2022-12-03T02:50:28.447Z,100713.69
2022-12-03T02:52:58.549Z,100718.84
2022-12-03T02:55:33.476Z,100717.97
2022-12-03T02:58:05.880Z,100711.97
2022-12-03T03:00:34.492Z,100720.56
2022-12-03T03:03:03.567Z,100722.28
2022-12-03T03:05:31.894Z,100718.81
2022-12-03T03:08:01.711Z,100715.41
2022-12-03T03:10:31.428Z,100719.72
2022-12-03T03:12:59.683Z,100720.56
2022-12-03T03:15:27.456Z,100713.72
2022-12-03T03:17:55.724Z,100714.56
2022-12-03T03:20:23.464Z,100719.72
2022-12-03T03:22:51.095Z,100707.72
2022-12-03T03:25:22.381Z,100713.72
2022-12-03T03:27:51.639Z,100717.13
2022-12-03T03:30:19.372Z,100713.69
2022-12-03T03:32:47.080Z,100706.88
2022-12-03T03:35:14.937Z,100709.44
2022-12-03T03:37:43.309Z,100713.72
2022-12-03T03:40:11.908Z,100704.31
2022-12-03T03:42:40.124Z,100714.56
2022-12-03T03:45:10.817Z,100712.84
2022-12-03T03:47:40.043Z,100712.00
2022-12-03T03:50:10.147Z,100711.09
2022-12-03T03:52:39.278Z,100714.56
2022-12-03T03:55:08.872Z,100706.03
2022-12-03T03:57:36.914Z,100705.16
2022-12-03T04:00:08.376Z,100699.16
2022-12-03T04:02:38.693Z,100700.00
2022-12-03T04:05:07.736Z,100705.16
2022-12-03T04:07:35.410Z,100699.19
2022-12-03T04:10:24.212Z,100701.72
2022-12-03T04:12:56.671Z,100710.25
2022-12-03T04:15:24.644Z,100700.84
2022-12-03T04:18:07.791Z,100705.13
2022-12-03T04:20:35.768Z,100696.56
2022-12-03T04:23:02.959Z,100703.38
2022-12-03T04:25:48.316Z,100700.03
2022-12-03T04:28:33.879Z,100693.19
2022-12-03T04:31:21.650Z,100701.72
2022-12-03T04:34:08.489Z,100689.75
2022-12-03T04:36:36.618Z,100693.16
2022-12-03T04:39:04.977Z,100681.84
2022-12-03T04:41:32.718Z,100681.19
2022-12-03T04:44:18.059Z,100693.16
2022-12-03T04:47:01.375Z,100696.59
2022-12-03T04:49:31.121Z,100693.22
2022-12-03T04:51:58.867Z,100695.78
2022-12-03T04:54:26.871Z,100693.19
2022-12-03T04:56:54.612Z,100693.22
2022-12-03T04:59:22.491Z,100693.16
2022-12-03T05:01:50.289Z,100689.72
2022-12-03T05:04:18.021Z,100691.47
2022-12-03T05:06:47.111Z,100688.06
2022-12-03T05:09:16.364Z,100685.50
2022-12-03T05:11:44.778Z,100689.78
2022-12-03T05:14:13.043Z,100691.47
2022-12-03T05:16:40.893Z,100686.34
2022-12-03T05:19:09.932Z,100686.34
2022-12-03T05:21:37.749Z,100681.19
2022-12-03T05:24:07.494Z,100682.94
2022-12-03T05:26:35.321Z,100687.22
2022-12-03T05:29:03.304Z,100684.66
2022-12-03T05:31:31.131Z,100682.00
2022-12-03T05:33:59.041Z,100681.22
2022-12-03T05:36:26.742Z,100684.63
2022-12-03T05:38:54.403Z,100680.38
2022-12-03T05:41:40.877Z,100677.78
2022-12-03T05:44:08.865Z,100672.56
2022-12-03T05:46:36.692Z,100677.75
2022-12-03T05:49:04.434Z,100667.53
2022-12-03T05:51:33.263Z,100662.38
2022-12-03T05:54:00.951Z,100670.94
2022-12-03T05:56:30.064Z,100678.63
2022-12-03T05:58:57.793Z,100678.63
2022-12-03T06:01:25.854Z,100682.94
2022-12-03T06:03:53.608Z,100683.81
2022-12-03T06:06:21.435Z,100673.56
2022-12-03T06:08:50.685Z,100675.25
2022-12-03T06:11:18.677Z,100664.94
2022-12-03T06:13:47.660Z,100672.63
2022-12-03T06:16:15.483Z,100679.53
2022-12-03T06:18:43.210Z,100668.44
2022-12-03T06:21:10.856Z,100672.69
2022-12-03T06:23:44.447Z,100670.13
2022-12-03T06:26:12.242Z,100667.53
2022-12-03T06:28:40.133Z,100667.44
2022-12-03T06:31:09.162Z,100658.06
2022-12-03T06:33:36.910Z,100659.00
2022-12-03T06:36:05.856Z,100665.00
2022-12-03T06:38:33.531Z,100661.56
2022-12-03T06:41:01.228Z,100661.56
2022-12-03T06:43:30.824Z,100662.41
2022-12-03T06:45:58.678Z,100646.16
2022-12-03T06:48:27.731Z,100651.25
2022-12-03T06:50:55.649Z,100659.84
2022-12-03T06:53:23.610Z,100653.06
2022-12-03T06:55:51.340Z,100652.19
2022-12-03T06:58:19.045Z,100656.47
2022-12-03T07:00:47.161Z,100660.72
2022-12-03T07:03:15.073Z,100659.84
2022-12-03T07:05:44.193Z,100665.03
2022-12-03T07:08:11.981Z,100659.94
2022-12-03T07:10:39.755Z,100673.56
2022-12-03T07:13:07.382Z,100670.16
2022-12-03T07:15:35.055Z,100677.00
2022-12-03T07:18:02.750Z,100688.97
2022-12-03T07:20:30.594Z,100688.94
2022-12-03T07:23:00.043Z,100692.38
2022-12-03T07:25:27.879Z,100690.66
2022-12-03T07:27:55.879Z,100698.34
2022-12-03T07:30:25.806Z,100698.34
2022-12-03T07:32:53.660Z,100699.19
2022-12-03T07:35:21.596Z,100700.03
2022-12-03T07:37:49.305Z,100703.47
2022-12-03T07:40:18.738Z,100694.06
2022-12-03T07:42:46.399Z,100693.19
2022-12-03T07:45:14.179Z,100696.59
2022-12-03T07:47:42.020Z,100697.47
2022-12-03T07:50:12.189Z,100695.72
2022-12-03T07:52:40.043Z,100689.72
2022-12-03T07:55:08.528Z,100694.84
2022-12-03T07:57:37.999Z,100690.59
2022-12-03T08:00:07.581Z,100692.28
2022-12-03T08:02:37.819Z,100694.84
2022-12-03T08:05:06.372Z,100695.72
2022-12-03T08:07:34.130Z,100690.63
2022-12-03T08:10:02.674Z,100697.44
2022-12-03T08:12:40.811Z,100690.63
2022-12-03T08:15:15.853Z,100690.56
2022-12-03T08:17:45.576Z,100701.72
2022-12-03T08:20:16.708Z,100697.44
2022-12-03T08:22:46.131Z,100696.59
2022-12-03T08:25:18.200Z,100708.53
2022-12-03T08:27:46.105Z,100697.41
2022-12-03T08:30:17.957Z,100705.13
2022-12-03T08:32:46.761Z,100698.22
2022-12-03T08:35:23.006Z,100687.94
2022-12-03T08:37:57.334Z,100679.31
2022-12-03T08:40:29.204Z,100683.59
2022-12-03T08:42:57.094Z,100677.59
2022-12-03T08:45:41.700Z,100676.72
2022-12-03T08:48:26.511Z,100683.59
2022-12-03T08:50:56.559Z,100692.25
2022-12-03T08:53:31.414Z,100693.94
2022-12-03T08:56:02.538Z,100683.50
2022-12-03T08:58:38.093Z,100692.16
2022-12-03T09:01:42.796Z,100687.84
2022-12-03T09:04:26.336Z,100682.66
2022-12-03T09:06:54.922Z,100687.81
2022-12-03T09:09:23.212Z,100687.63
2022-12-03T09:11:51.546Z,100682.56
2022-12-03T09:14:21.237Z,100674.88
2022-12-03T09:16:51.951Z,100674.81
2022-12-03T09:19:19.814Z,100667.81
2022-12-03T09:21:47.638Z,100672.22
2022-12-03T09:24:15.485Z,100666.22
2022-12-03T09:26:43.295Z,100669.69
2022-12-03T09:29:12.631Z,100659.31
2022-12-03T09:31:40.873Z,100671.38
2022-12-03T09:34:10.052Z,100671.41
2022-12-03T09:36:37.985Z,100682.41
2022-12-03T09:39:06.220Z,100679.06
2022-12-03T09:41:33.880Z,100684.06
2022-12-03T09:44:04.343Z,100675.59
2022-12-03T09:46:33.631Z,100669.66
2022-12-03T09:49:02.164Z,100666.00
2022-12-03T09:51:34.444Z,100668.72
2022-12-03T09:54:04.174Z,100671.28
2022-12-03T09:56:32.257Z,100667.84
2022-12-03T09:59:00.394Z,100673.00
2022-12-03T10:01:30.463Z,100664.25
2022-12-03T10:03:59.527Z,100667.00
2022-12-03T10:06:27.580Z,100662.72
2022-12-03T10:08:57.020Z,100660.00
2022-12-03T10:11:27.545Z,100658.25
2022-12-03T10:13:58.068Z,100654.06
2022-12-03T10:16:28.115Z,100644.47
2022-12-03T10:19:00.268Z,100648.88
2022-12-03T10:21:32.087Z,100640.97
2022-12-03T10:24:20.647Z,100649.56
2022-12-03T10:26:50.173Z,100634.13
2022-12-03T10:29:20.749Z,100630.66
2022-12-03T10:31:56.388Z,100621.97
2022-12-03T10:34:31.620Z,100619.34
2022-12-03T10:37:14.855Z,100615.09
2022-12-03T10:39:56.991Z,100614.22
2022-12-03T10:42:25.506Z,100607.94
2022-12-03T10:45:08.974Z,100608.06
2022-12-03T10:47:36.894Z,100601.03
2022-12-03T10:50:07.043Z,100598.59
2022-12-03T10:52:34.938Z,100595.38
2022-12-03T10:55:04.002Z,100591.69
2022-12-03T10:57:31.779Z,100593.50
2022-12-03T10:59:59.718Z,100592.59
2022-12-03T11:02:28.124Z,100591.72
2022-12-03T11:04:56.305Z,100590.91
2022-12-03T11:07:24.945Z,100587.25
2022-12-03T11:09:55.635Z,100583.19
2022-12-03T11:12:27.421Z,100574.28
2022-12-03T11:15:07.229Z,100565.88
2022-12-03T11:17:50.642Z,100567.31
2022-12-03T11:21:10.946Z,100556.81
2022-12-03T11:24:18.368Z,100551.31
2022-12-03T11:27:28.734Z,100546.38
2022-12-03T11:30:00.041Z,100545.41
2022-12-03T11:33:06.327Z,100546.22
2022-12-03T11:36:05.235Z,100545.53
2022-12-03T11:38:53.647Z,100541.81
2022-12-03T11:41:28.179Z,100539.47
2022-12-03T11:44:27.311Z,100539.75
2022-12-03T11:46:58.194Z,100541.28
2022-12-03T11:49:31.489Z,100542.25
2022-12-03T11:51:59.618Z,100540.31
2022-12-03T11:54:27.381Z,100533.59
2022-12-03T11:56:56.039Z,100527.63
2022-12-03T11:59:23.760Z,100529.38
2022-12-03T12:01:51.580Z,100527.44
2022-12-03T12:04:32.673Z,100524.41
2022-12-03T12:07:01.686Z,100521.66
2022-12-03T12:09:48.827Z,100527.03
2022-12-03T12:12:22.084Z,100517.72
2022-12-03T12:14:49.749Z,100516.75
2022-12-03T12:17:33.466Z,100516.75
2022-12-03T12:20:25.778Z,100521.34
2022-12-03T12:22:55.324Z,100515.13
2022-12-03T12:25:41.462Z,100513.47
2022-12-03T12:28:09.437Z,100512.53
2022-12-03T12:30:37.820Z,100507.41
2022-12-03T12:33:15.095Z,100506.63
2022-12-03T12:35:44.283Z,100491.91
2022-12-03T12:38:17.094Z,100487.50
2022-12-03T12:40:48.941Z,100490.31
2022-12-03T12:43:24.355Z,100491.00
2022-12-03T12:45:54.698Z,100485.84
2022-12-03T12:48:25.879Z,100485.63
2022-12-03T12:51:01.046Z,100483.22
2022-12-03T12:53:30.491Z,100485.00
2022-12-03T12:55:59.967Z,100477.94
2022-12-03T12:58:31.808Z,100473.84
2022-12-03T13:01:01.887Z,100478.00
2022-12-03T13:03:34.882Z,100481.34
2022-12-03T13:06:04.405Z,100485.00
2022-12-03T13:08:38.688Z,100473.06
2022-12-03T13:11:07.510Z,100477.41
2022-12-03T13:13:43.651Z,100479.84
2022-12-03T13:16:19.135Z,100485.91
2022-12-03T13:18:48.894Z,100485.31
2022-12-03T13:21:24.978Z,100483.47
2022-12-03T13:23:55.592Z,100480.25
2022-12-03T13:26:38.760Z,100474.19
2022-12-03T13:29:14.584Z,100473.78
2022-12-03T13:31:45.967Z,100467.09
2022-12-03T13:34:20.139Z,100472.47
2022-12-03T13:36:55.331Z,100468.22
2022-12-03T13:39:29.924Z,100470.84
2022-12-03T13:42:16.314Z,100463.78
2022-12-03T13:44:46.615Z,100459.81
2022-12-03T13:47:16.867Z,100460.72
2022-12-03T13:49:52.068Z,100469.16
2022-12-03T13:52:24.787Z,100471.69
2022-12-03T13:54:53.884Z,100459.69
2022-12-03T13:57:23.452Z,100454.66
2022-12-03T13:59:51.642Z,100455.31
2022-12-03T14:02:20.033Z,100453.38
2022-12-03T14:04:48.067Z,100450.06
2022-12-03T14:07:16.023Z,100457.78
2022-12-03T14:09:45.170Z,100457.72
2022-12-03T14:12:28.993Z,100455.31
2022-12-03T14:14:57.344Z,100451.88
2022-12-03T14:17:25.089Z,100451.03
2022-12-03T14:19:53.245Z,100452.97
2022-12-03T14:22:23.333Z,100450.34
2022-12-03T14:24:52.754Z,100458.06
2022-12-03T14:27:21.106Z,100445.25
2022-12-03T14:29:48.812Z,100446.16
2022-12-03T14:32:16.889Z,100445.81
2022-12-03T14:34:44.767Z,100446.06
2022-12-03T14:37:12.533Z,100454.66
2022-12-03T14:39:40.178Z,100448.78
2022-12-03T14:42:15.094Z,100444.97
2022-12-03T14:44:44.326Z,100446.81
2022-12-03T14:47:13.013Z,100461.41
2022-12-03T14:49:41.339Z,100453.88
2022-12-03T14:52:12.262Z,100462.38
2022-12-03T14:54:42.269Z,100467.69
2022-12-03T14:57:13.091Z,100464.69
2022-12-03T14:59:41.061Z,100472.69
2022-12-03T15:02:09.887Z,100470.00
2022-12-03T15:04:38.252Z,100465.00
2022-12-03T15:07:07.176Z,100466.81
2022-12-03T15:09:35.050Z,100470.31
2022-12-03T15:12:03.969Z,100463.41
2022-12-03T15:14:33.213Z,100466.94
2022-12-03T15:17:01.074Z,100472.19
2022-12-03T15:19:28.861Z,100468.53
2022-12-03T15:21:56.618Z,100471.22
2022-12-03T15:24:24.627Z,100472.22
2022-12-03T15:26:53.603Z,100469.47
2022-12-03T15:29:21.686Z,100471.25
2022-12-03T15:31:50.931Z,100464.34
2022-12-03T15:34:22.537Z,100467.03
2022-12-03T15:36:50.934Z,100472.97
2022-12-03T15:39:18.746Z,100472.03
2022-12-03T15:41:46.496Z,100474.66
2022-12-03T15:44:14.335Z,100471.31
2022-12-03T15:46:42.139Z,100469.69
2022-12-03T15:49:11.288Z,100467.97
2022-12-03T15:51:39.054Z,100475.72
2022-12-03T15:54:07.233Z,100457.69
2022-12-03T15:56:37.721Z,100463.66
2022-12-03T15:59:05.589Z,100462.78
2022-12-03T16:01:33.390Z,100464.50
2022-12-03T16:04:01.567Z,100461.97
2022-12-03T16:06:30.737Z,100457.75
2022-12-03T16:08:58.547Z,100461.84
2022-12-03T16:11:26.272Z,100461.97
2022-12-03T16:13:54.118Z,100455.13
2022-12-03T16:16:21.911Z,100449.94
2022-12-03T16:18:49.786Z,100454.06
2022-12-03T16:21:19.740Z,100458.47
2022-12-03T16:23:52.671Z,100454.19
2022-12-03T16:26:20.443Z,100456.84
2022-12-03T16:28:49.205Z,100463.44
2022-12-03T16:31:19.068Z,100457.56
2022-12-03T16:33:47.082Z,100462.53
2022-12-03T16:36:15.737Z,100454.28
2022-12-03T16:38:43.420Z,100454.97
2022-12-03T16:41:12.973Z,100455.53
2022-12-03T16:43:40.712Z,100458.97
2022-12-03T16:46:25.739Z,100461.69
2022-12-03T16:48:55.236Z,100456.66
2022-12-03T16:51:23.464Z,100455.94
2022-12-03T16:53:51.252Z,100447.31
2022-12-03T16:56:20.881Z,100446.41
2022-12-03T16:58:48.663Z,100452.53
2022-12-03T17:01:16.763Z,100443.84
2022-12-03T17:03:44.660Z,100452.34
2022-12-03T17:06:13.134Z,100441.28
2022-12-03T17:08:47.362Z,100437.09
2022-12-03T17:11:17.244Z,100441.38
2022-12-03T17:13:46.727Z,100441.38
2022-12-03T17:16:17.266Z,100445.59
2022-12-03T17:18:45.203Z,100433.66
2022-12-03T17:21:13.040Z,100432.84
2022-12-03T17:23:40.732Z,100437.59
2022-12-03T17:26:08.540Z,100433.66
2022-12-03T17:28:36.538Z,100438.53
2022-12-03T17:31:05.948Z,100436.28
2022-12-03T17:33:33.777Z,100434.50
2022-12-03T17:36:01.521Z,100430.91
2022-12-03T17:38:32.810Z,100432.84
2022-12-03T17:41:05.147Z,100425.13
2022-12-03T17:43:33.003Z,100431.13
2022-12-03T17:46:01.285Z,100431.13
2022-12-03T17:48:31.472Z,100432.91
2022-12-03T17:50:59.524Z,100438.75
2022-12-03T17:53:27.231Z,100419.94
2022-12-03T17:55:55.004Z,100426.69
2022-12-03T17:58:22.962Z,100421.44
2022-12-03T18:00:50.828Z,100430.22
2022-12-03T18:03:19.083Z,100422.44
2022-12-03T18:05:48.202Z,100418.28
2022-12-03T18:08:16.122Z,100420.66
2022-12-03T18:10:44.005Z,100417.16
2022-12-03T18:13:12.001Z,100419.91
2022-12-03T18:15:39.680Z,100418.13
2022-12-03T18:18:07.384Z,100413.75
2022-12-03T18:20:35.207Z,100412.06
2022-12-03T18:23:05.033Z,100414.81
2022-12-03T18:25:32.783Z,100413.13
2022-12-03T18:28:00.436Z,100412.22
2022-12-03T18:30:28.280Z,100405.47
2022-12-03T18:32:56.496Z,100412.38
2022-12-03T18:35:24.394Z,100411.41
2022-12-03T18:37:52.703Z,100411.47
2022-12-03T18:40:26.934Z,100423.38
2022-12-03T18:42:54.734Z,100413.00
2022-12-03T18:45:22.418Z,100404.56
2022-12-03T18:47:50.379Z,100410.56
2022-12-03T18:50:18.410Z,100415.75
2022-12-03T18:52:46.162Z,100414.81
2022-12-03T18:55:19.175Z,100408.00
2022-12-03T18:57:48.302Z,100412.31
2022-12-03T19:00:17.047Z,100411.47
2022-12-03T19:03:02.475Z,100404.66
2022-12-03T19:05:32.360Z,100404.59
2022-12-03T19:08:00.306Z,100395.03
2022-12-03T19:10:28.439Z,100405.56
2022-12-03T19:12:58.020Z,100407.13
2022-12-03T19:15:26.261Z,100406.34
2022-12-03T19:17:54.125Z,100398.47
2022-12-03T19:20:21.832Z,100403.63
2022-12-03T19:22:49.674Z,100399.47
2022-12-03T19:25:17.592Z,100402.16
2022-12-03T19:27:45.514Z,100407.28
2022-12-03T19:30:15.798Z,100399.44
2022-12-03T19:32:45.181Z,100397.81
2022-12-03T19:35:12.942Z,100400.28
2022-12-03T19:37:40.778Z,100394.94
2022-12-03T19:40:10.517Z,100397.59
2022-12-03T19:42:38.444Z,100388.13
2022-12-03T19:45:07.484Z,100392.41
2022-12-03T19:47:37.005Z,100391.75
2022-12-03T19:50:05.734Z,100399.53
2022-12-03T19:52:36.229Z,100396.91
2022-12-03T19:55:04.270Z,100395.38
2022-12-03T19:57:32.259Z,100401.34
2022-12-03T20:00:01.062Z,100401.25
2022-12-03T20:02:28.996Z,100403.94
2022-12-03T20:04:58.170Z,100397.16
2022-12-03T20:07:26.072Z,100394.63
2022-12-03T20:09:54.258Z,100397.06
2022-12-03T20:12:22.322Z,100394.47
2022-12-03T20:14:51.545Z,100400.22
2022-12-03T20:17:19.232Z,100391.00
2022-12-03T20:19:47.042Z,100389.34
2022-12-03T20:22:16.270Z,100395.19
2022-12-03T20:24:44.161Z,100391.06
2022-12-03T20:27:11.886Z,100401.38
2022-12-03T20:29:39.733Z,100392.72
2022-12-03T20:32:09.022Z,100393.72
2022-12-03T20:34:36.865Z,100396.28
2022-12-03T20:37:04.718Z,100389.44
2022-12-03T20:39:33.955Z,100380.88
2022-12-03T20:42:01.655Z,100378.97
2022-12-03T20:44:29.778Z,100382.59
2022-12-03T20:46:57.584Z,100379.06
2022-12-03T20:49:25.440Z,100377.31
2022-12-03T20:51:53.215Z,100374.53
2022-12-03T20:54:21.014Z,100366.81
2022-12-03T20:56:51.113Z,100372.22
2022-12-03T20:59:19.283Z,100367.72
2022-12-03T21:01:47.152Z,100367.88
2022-12-03T21:04:16.104Z,100369.75
2022-12-03T21:06:43.944Z,100376.63
2022-12-03T21:09:12.700Z,100377.44
2022-12-03T21:11:42.566Z,100368.88
2022-12-03T21:14:12.564Z,100375.69
2022-12-03T21:19:30.711Z,100370.66
2022-12-03T21:21:58.381Z,100365.53
2022-12-03T21:24:26.130Z,100368.13
2022-12-03T21:26:54.004Z,100373.25
2022-12-03T21:29:23.394Z,100370.63
2022-12-03T21:31:51.125Z,100373.25
2022-12-03T21:34:18.954Z,100364.59
2022-12-03T21:36:46.792Z,100369.78
2022-12-03T21:39:14.591Z,100358.66
2022-12-03T21:42:33.910Z,100362.88
2022-12-03T21:44:31.628Z,100363.84
2022-12-03T21:47:12.751Z,100355.22
2022-12-03T21:49:42.208Z,100366.97
2022-12-03T21:52:10.786Z,100360.09
2022-12-03T21:54:38.534Z,100366.25
2022-12-03T21:57:06.203Z,100356.03
2022-12-03T21:59:35.266Z,100355.13
2022-12-03T22:02:03.324Z,100364.69
2022-12-03T22:04:31.097Z,100367.22
2022-12-03T22:06:59.328Z,100356.69
2022-12-03T22:09:27.176Z,100355.88
2022-12-03T22:11:56.907Z,100365.41
2022-12-03T22:14:24.807Z,100362.09
2022-12-03T22:16:53.922Z,100365.50
2022-12-03T22:19:23.364Z,100367.34
2022-12-03T22:21:51.188Z,100363.84
2022-12-03T22:24:19.470Z,100368.16
2022-12-03T22:26:47.431Z,100359.59
2022-12-03T22:29:15.856Z,100365.53
2022-12-03T22:31:43.615Z,100361.13
2022-12-03T22:34:12.876Z,100358.66
2022-12-03T22:36:41.167Z,100363.88
2022-12-03T22:39:08.861Z,100360.47
2022-12-03T22:41:36.592Z,100351.94
2022-12-03T22:44:04.864Z,100354.41
2022-12-03T22:46:32.850Z,100350.19
2022-12-03T22:49:06.677Z,100352.75
2022-12-03T22:51:36.885Z,100351.84
2022-12-03T22:54:05.554Z,100353.50
2022-12-03T22:56:33.738Z,100357.88
2022-12-03T22:59:01.877Z,100351.03
2022-12-03T23:01:31.947Z,100347.72
2022-12-03T23:04:00.999Z,100338.84
2022-12-03T23:06:29.891Z,100352.75
2022-12-03T23:09:00.044Z,100333.88
2022-12-03T23:11:29.216Z,100328.66
2022-12-03T23:13:59.066Z,100334.75
2022-12-03T23:16:29.143Z,100322.88
2022-12-03T23:18:58.924Z,100322.16
2022-12-03T23:21:30.712Z,100316.16
2022-12-03T23:24:00.594Z,100310.22
2022-12-03T23:26:29.166Z,100304.00
2022-12-03T23:28:57.352Z,100298.00
2022-12-03T23:31:27.015Z,100293.81
2022-12-03T23:33:56.017Z,100297.22
2022-12-03T23:36:26.835Z,100299.84
2022-12-03T23:38:55.123Z,100305.97
2022-12-03T23:41:24.827Z,100311.06
2022-12-03T23:43:52.706Z,100324.78
2022-12-03T23:46:22.536Z,100322.97
2022-12-03T23:48:51.392Z,100317.78
2022-12-03T23:51:21.656Z,100317.84
2022-12-03T23:53:50.921Z,100319.53
2022-12-03T23:56:20.907Z,100310.31
2022-12-03T23:58:50.260Z,100308.59
